Time,TemperatureF,DewpointF,PressureIn,WindDirection,WindDirectionDegrees,WindSpeedMPH,WindSpeedGustMPH,Humidity,HourlyPrecipIn,Conditions,Clouds,dailyrainin,SoftwareType,DateUTC
2013-08-22 00:02:00,76.0,73.8,30.06,ENE,58,0.0,1.0,93,0.00,,OVC250,0.00,VWS V14.00,2013-08-22 04:02:00,
2013-08-22 00:17:00,75.8,73.6,30.05,ENE,58,0.0,0.0,93,0.00,,OVC250,0.00,VWS V14.00,2013-08-22 04:17:00,
2013-08-22 00:32:00,75.6,73.8,30.05,ENE,58,0.0,0.0,94,0.00,,OVC005,0.00,VWS V14.00,2013-08-22 04:32:00,
2013-08-22 00:47:00,75.6,73.8,30.05,ENE,58,0.0,0.0,94,0.00,,OVC005,0.00,VWS V14.00,2013-08-22 04:47:00,
2013-08-22 01:02:00,75.6,73.8,30.05,ENE,58,0.0,0.0,94,0.00,,OVC005,0.00,VWS V14.00,2013-08-22 05:02:00,
2013-08-22 01:17:00,75.4,73.6,30.05,ENE,58,0.0,0.0,94,0.00,,OVC005,0.00,VWS V14.00,2013-08-22 05:17:00,
2013-08-22 01:32:00,75.3,73.5,30.05,ENE,58,0.0,0.0,94,0.00,,OVC005,0.00,VWS V14.00,2013-08-22 05:32:00,
2013-08-22 01:47:00,75.3,73.5,30.04,ENE,58,0.0,0.0,94,0.00,,OVC005,0.00,VWS V14.00,2013-08-22 05:47:00,
2013-08-22 02:02:00,74.9,73.1,30.04,ENE,58,0.0,0.0,94,0.00,,OVC005,0.00,VWS V14.00,2013-08-22 06:02:00,
2013-08-22 02:17:00,74.6,72.8,30.04,ENE,58,0.0,0.0,94,0.00,,OVC005,0.00,VWS V14.00,2013-08-22 06:17:00,
2013-08-22 02:32:00,74.0,72.2,30.04,ENE,58,0.0,0.0,94,0.00,,OVC005,0.00,VWS V14.00,2013-08-22 06:32:00,
2013-08-22 02:47:00,73.7,71.9,30.04,ENE,58,0.0,0.0,94,0.00,,OVC005,0.00,VWS V14.00,2013-08-22 06:47:00,
2013-08-22 03:02:00,74.0,72.2,30.04,ENE,58,0.0,0.0,94,0.00,,BKN080,0.00,VWS V14.00,2013-08-22 07:02:00,
2013-08-22 03:17:00,73.9,72.1,30.05,ENE,58,0.0,0.0,94,0.00,,BKN080,0.00,VWS V14.00,2013-08-22 07:17:00,
2013-08-22 03:32:00,73.5,71.7,30.04,ENE,58,0.0,0.0,94,0.00,,BKN080,0.00,VWS V14.00,2013-08-22 07:32:00,
2013-08-22 03:47:00,73.5,71.7,30.04,ENE,58,0.0,0.0,94,0.00,,BKN080,0.00,VWS V14.00,2013-08-22 07:47:00,
2013-08-22 04:02:00,73.3,71.5,30.03,ENE,58,0.0,0.0,94,0.00,,BKN140,0.00,VWS V14.00,2013-08-22 08:02:00,
2013-08-22 04:17:00,73.2,71.4,30.03,ENE,58,0.0,2.0,94,0.00,,BKN140,0.00,VWS V14.00,2013-08-22 08:17:00,
2013-08-22 04:32:00,73.0,71.2,30.03,ENE,58,0.0,1.0,94,0.00,,BKN140,0.00,VWS V14.00,2013-08-22 08:32:00,
2013-08-22 04:47:00,73.0,71.2,30.03,ENE,58,0.0,1.0,94,0.00,,BKN140,0.00,VWS V14.00,2013-08-22 08:47:00,
2013-08-22 05:02:00,72.8,71.0,30.03,ENE,58,0.0,0.0,94,0.00,,OVC005,0.00,VWS V14.00,2013-08-22 09:02:00,
2013-08-22 05:17:00,72.8,71.0,30.03,ENE,58,0.0,1.0,94,0.00,,OVC005,0.00,VWS V14.00,2013-08-22 09:17:00,
2013-08-22 05:32:00,73.0,71.2,30.02,ENE,58,0.0,1.0,94,0.00,,OVC005,0.00,VWS V14.00,2013-08-22 09:32:00,
2013-08-22 05:47:00,73.0,71.2,30.03,NE,41,3.0,3.0,94,0.00,,OVC005,0.00,VWS V14.00,2013-08-22 09:47:00,
2013-08-22 06:02:00,72.8,71.0,30.03,NE,41,0.0,3.0,94,0.00,,OVC005,0.00,VWS V14.00,2013-08-22 10:02:00,
2013-08-22 06:17:00,72.8,71.0,30.03,NE,41,0.0,1.0,94,0.00,,OVC005,0.00,VWS V14.00,2013-08-22 10:17:00,
2013-08-22 06:32:00,72.8,71.0,30.03,NE,41,0.0,1.0,94,0.00,,OVC005,0.00,VWS V14.00,2013-08-22 10:32:00,
2013-08-22 06:47:00,73.0,71.2,30.03,NE,41,0.0,0.0,94,0.00,,OVC005,0.00,VWS V14.00,2013-08-22 10:47:00,
2013-08-22 08:32:00,73.3,71.2,30.06,NE,41,0.0,0.0,93,0.00,,,0.00,VWS V14.00,2013-08-22 12:32:00,
2013-08-22 08:47:00,73.7,71.6,30.06,NE,41,0.0,3.0,93,0.00,,,0.00,VWS V14.00,2013-08-22 12:47:00,
2013-08-22 09:02:00,74.2,71.7,30.06,NE,41,0.0,1.0,92,0.00,,,0.00,VWS V14.00,2013-08-22 13:02:00,
2013-08-22 09:17:00,74.9,71.8,30.05,NE,40,0.0,2.0,90,0.00,,,0.00,VWS V14.00,2013-08-22 13:17:00,
2013-08-22 09:32:00,75.4,71.6,30.06,NE,40,0.0,1.0,88,0.00,,,0.00,VWS V14.00,2013-08-22 13:32:00,
2013-08-22 09:47:00,76.8,72.3,30.06,NE,40,0.0,1.0,86,0.00,,,0.00,VWS V14.00,2013-08-22 13:47:00,
2013-08-22 10:02:00,77.9,72.7,30.05,NE,40,0.0,1.0,84,0.00,,BKN007,0.00,VWS V14.00,2013-08-22 14:02:00,
2013-08-22 10:17:00,79.8,72.7,30.04,NE,40,0.0,2.0,79,0.00,,BKN007,0.00,VWS V14.00,2013-08-22 14:17:00,
2013-08-22 10:32:00,81.2,72.5,30.05,NNE,32,0.0,3.0,75,0.00,,BKN007,0.00,VWS V14.00,2013-08-22 14:32:00,
2013-08-22 10:47:00,82.4,73.3,30.05,NNE,30,1.0,3.0,74,0.00,,BKN007,0.00,VWS V14.00,2013-08-22 14:47:00,
2013-08-22 11:02:00,83.8,73.4,30.04,NNE,30,0.0,2.0,71,0.00,,SCT250,0.00,VWS V14.00,2013-08-22 15:02:00,
2013-08-22 11:17:00,84.7,73.4,30.04,NNE,30,0.0,0.0,69,0.00,,SCT250,0.00,VWS V14.00,2013-08-22 15:17:00,
2013-08-22 11:32:00,85.3,71.8,30.04,NNE,28,0.0,3.0,64,0.00,,SCT250,0.00,VWS V14.00,2013-08-22 15:32:00,
2013-08-22 11:47:00,86.1,71.1,30.03,NNE,28,0.0,1.0,61,0.00,,SCT250,0.00,VWS V14.00,2013-08-22 15:47:00,
2013-08-22 12:02:00,86.1,73.0,30.02,NNE,28,0.0,1.0,65,0.00,,FEW012,0.00,VWS V14.00,2013-08-22 16:02:00,
2013-08-22 12:17:00,86.7,71.7,30.02,NNE,28,0.0,1.0,61,0.00,,FEW012,0.00,VWS V14.00,2013-08-22 16:17:00,
2013-08-22 12:32:00,87.0,69.4,30.02,North,11,0.0,5.0,56,0.00,,FEW012,0.00,VWS V14.00,2013-08-22 16:32:00,
2013-08-22 12:47:00,87.4,69.3,30.01,North,11,0.0,1.0,55,0.00,,FEW012,0.00,VWS V14.00,2013-08-22 16:47:00,
2013-08-22 13:02:00,88.2,72.1,30.00,North,4,1.0,2.0,59,0.00,,FEW030,0.00,VWS V14.00,2013-08-22 17:02:00,
2013-08-22 13:17:00,88.0,69.8,30.01,North,3,0.0,5.0,55,0.00,,FEW030,0.00,VWS V14.00,2013-08-22 17:17:00,
2013-08-22 13:32:00,87.6,70.5,30.00,North,3,2.0,3.0,57,0.00,,FEW030,0.00,VWS V14.00,2013-08-22 17:32:00,
2013-08-22 13:47:00,88.0,67.6,30.00,North,3,0.0,3.0,51,0.00,,FEW030,0.00,VWS V14.00,2013-08-22 17:47:00,
2013-08-22 14:02:00,87.6,68.9,29.99,North,3,0.0,5.0,54,0.00,,SCT250,0.00,VWS V14.00,2013-08-22 18:02:00,
2013-08-22 14:17:00,88.6,73.4,29.98,North,3,0.0,3.0,61,0.00,,SCT250,0.00,VWS V14.00,2013-08-22 18:17:00,
2013-08-22 14:32:00,88.4,69.1,29.98,NW,326,0.0,4.0,53,0.00,,SCT250,0.00,VWS V14.00,2013-08-22 18:32:00,
2013-08-22 14:47:00,88.0,68.7,29.97,NW,325,0.0,3.0,53,0.00,,SCT250,0.00,VWS V14.00,2013-08-22 18:47:00,
2013-08-22 15:02:00,87.6,68.4,29.96,NW,325,0.0,2.0,53,0.00,,BKN250,0.00,VWS V14.00,2013-08-22 19:02:00,
2013-08-22 15:17:00,87.0,69.9,29.95,NW,323,0.0,5.0,57,0.00,,BKN250,0.00,VWS V14.00,2013-08-22 19:17:00,
2013-08-22 15:32:00,86.5,69.0,29.95,NW,323,0.0,5.0,56,0.00,,BKN250,0.00,VWS V14.00,2013-08-22 19:32:00,
2013-08-22 15:47:00,87.2,68.5,29.94,NW,306,1.0,2.0,54,0.00,,BKN250,0.00,VWS V14.00,2013-08-22 19:47:00,
2013-08-22 16:02:00,85.5,71.0,29.94,NW,306,0.0,1.0,62,0.00,,BKN250,0.00,VWS V14.00,2013-08-22 20:02:00,
2013-08-22 16:17:00,84.0,73.2,29.93,NW,306,0.0,1.0,70,0.00,,BKN250,0.00,VWS V14.00,2013-08-22 20:17:00,
2013-08-22 16:32:00,83.0,70.9,29.93,NW,306,0.0,1.0,67,0.00,,BKN250,0.00,VWS V14.00,2013-08-22 20:32:00,
2013-08-22 16:47:00,82.6,71.8,29.93,NW,306,0.0,0.0,70,0.00,,BKN250,0.00,VWS V14.00,2013-08-22 20:47:00,
2013-08-22 17:02:00,84.7,69.8,29.93,NW,306,0.0,2.0,61,0.00,,BKN250,0.00,VWS V14.00,2013-08-22 21:02:00,
2013-08-22 17:17:00,85.1,69.7,29.92,NW,306,0.0,2.0,60,0.00,,BKN250,0.00,VWS V14.00,2013-08-22 21:17:00,
2013-08-22 17:32:00,84.9,71.8,29.91,NW,306,0.0,1.0,65,0.00,,BKN250,0.00,VWS V14.00,2013-08-22 21:32:00,
2013-08-22 17:47:00,83.8,71.7,29.92,NW,306,0.0,1.0,67,0.00,,BKN250,0.00,VWS V14.00,2013-08-22 21:47:00,
2013-08-22 18:02:00,82.0,71.7,29.92,NW,306,0.0,0.0,71,0.00,,BKN250,0.00,VWS V14.00,2013-08-22 22:02:00,
2013-08-22 18:17:00,80.7,71.7,29.92,NW,306,0.0,0.0,74,0.00,,BKN250,0.00,VWS V14.00,2013-08-22 22:17:00,
2013-08-22 18:32:00,79.8,71.9,29.92,NW,306,0.0,0.0,77,0.00,,BKN250,0.00,VWS V14.00,2013-08-22 22:32:00,
2013-08-22 18:47:00,79.2,72.1,29.92,NW,306,0.0,0.0,79,0.00,,BKN250,0.00,VWS V14.00,2013-08-22 22:47:00,
2013-08-22 19:02:00,79.0,72.3,29.92,NW,306,0.0,0.0,80,0.00,,BKN250,0.00,VWS V14.00,2013-08-22 23:02:00,
2013-08-22 19:17:00,79.2,73.2,29.92,NW,306,0.0,0.0,82,0.00,,BKN250,0.00,VWS V14.00,2013-08-22 23:17:00,
2013-08-22 19:32:00,78.6,71.6,29.93,NW,306,0.0,2.0,79,0.00,,BKN250,0.00,VWS V14.00,2013-08-22 23:32:00,
2013-08-22 19:47:00,78.3,71.3,29.94,NW,306,0.0,0.0,79,0.00,,BKN250,0.00,VWS V14.00,2013-08-22 23:47:00,
2013-08-22 20:02:00,77.7,70.3,29.94,NW,306,0.0,0.0,78,0.00,,BKN250,0.00,VWS V14.00,2013-08-23 00:02:00,
2013-08-22 20:17:00,77.4,70.4,29.94,NW,306,0.0,0.0,79,0.00,,BKN250,0.00,VWS V14.00,2013-08-23 00:17:00,
2013-08-22 20:32:00,76.8,70.5,29.94,NW,306,0.0,0.0,81,0.00,,BKN250,0.00,VWS V14.00,2013-08-23 00:32:00,
2013-08-22 20:47:00,76.3,70.4,29.94,NW,306,0.0,0.0,82,0.00,,BKN250,0.00,VWS V14.00,2013-08-23 00:47:00,
2013-08-22 21:02:00,76.5,70.2,29.95,NW,306,0.0,0.0,81,0.00,,BKN110,0.00,VWS V14.00,2013-08-23 01:02:00,
2013-08-22 21:17:00,76.7,70.4,29.95,NW,306,0.0,0.0,81,0.00,,BKN110,0.00,VWS V14.00,2013-08-23 01:17:00,
2013-08-22 21:32:00,76.7,70.8,29.96,NW,306,0.0,0.0,82,0.00,,BKN110,0.00,VWS V14.00,2013-08-23 01:32:00,
2013-08-22 21:47:00,76.5,70.6,29.97,NW,306,0.0,0.0,82,0.00,,BKN110,0.00,VWS V14.00,2013-08-23 01:47:00,
2013-08-22 22:02:00,76.5,70.6,29.97,NW,306,0.0,0.0,82,0.00,,FEW065,0.00,VWS V14.00,2013-08-23 02:02:00,
2013-08-22 22:17:00,76.3,69.3,29.96,NW,306,0.0,0.0,79,0.00,,FEW065,0.00,VWS V14.00,2013-08-23 02:17:00,
2013-08-22 22:32:00,75.4,68.4,29.96,NW,306,0.0,1.0,79,0.00,,FEW065,0.00,VWS V14.00,2013-08-23 02:32:00,
2013-08-22 22:47:00,74.7,68.1,29.96,NW,306,0.0,0.0,80,0.00,,FEW065,0.00,VWS V14.00,2013-08-23 02:47:00,
2013-08-22 23:02:00,73.9,67.3,29.95,NW,306,0.0,0.0,80,0.00,,SCT250,0.00,VWS V14.00,2013-08-23 03:02:00,
2013-08-22 23:17:00,73.3,66.4,29.95,NW,306,0.0,0.0,79,0.00,,SCT250,0.00,VWS V14.00,2013-08-23 03:17:00,
2013-08-22 23:32:00,72.5,66.7,29.95,NW,306,0.0,0.0,82,0.00,,SCT250,0.00,VWS V14.00,2013-08-23 03:32:00,
2013-08-22 23:47:00,72.0,66.2,29.95,NW,306,0.0,0.0,82,0.00,,SCT250,0.00,VWS V14.00,2013-08-23 03:47:00,